createdAt,value
2023-01-09T00:01:27.655Z,2.90
2023-01-09T00:03:54.427Z,2.88
2023-01-09T00:06:20.993Z,2.80
2023-01-09T00:08:47.400Z,2.60
2023-01-09T00:11:13.907Z,2.97
2023-01-09T00:13:40.286Z,2.40
2023-01-09T00:16:08.200Z,2.80
2023-01-09T00:18:35.615Z,2.90
2023-01-09T00:21:03.970Z,2.80
2023-01-09T00:23:31.050Z,2.50
2023-01-09T00:26:05.825Z,2.63
2023-01-09T00:28:33.048Z,2.40
2023-01-09T00:31:02.205Z,2.90
2023-01-09T00:33:31.664Z,2.20
2023-01-09T00:35:58.368Z,2.90
2023-01-09T00:38:25.026Z,2.63
2023-01-09T00:40:52.172Z,3.25
2023-01-09T00:43:20.012Z,2.50
2023-01-09T00:45:46.533Z,2.58
2023-01-09T00:48:24.834Z,2.75
2023-01-09T00:50:52.025Z,2.78
2023-01-09T00:53:23.275Z,2.72
2023-01-09T00:55:51.515Z,3.35
2023-01-09T00:58:18.817Z,2.90
2023-01-09T01:00:45.420Z,3.35
2023-01-09T01:03:11.916Z,2.85
2023-01-09T01:05:56.844Z,2.80
2023-01-09T01:08:23.313Z,2.78
2023-01-09T01:10:49.969Z,2.70
2023-01-09T01:13:16.414Z,2.88
2023-01-09T01:15:44.506Z,2.92
2023-01-09T01:18:12.566Z,2.78
2023-01-09T01:20:43.847Z,2.80
2023-01-09T01:23:10.605Z,2.92
2023-01-09T01:25:38.693Z,2.60
2023-01-09T01:28:06.078Z,3.13
2023-01-09T01:30:32.992Z,2.58
2023-01-09T01:32:59.543Z,2.58
2023-01-09T01:35:26.733Z,2.70
2023-01-09T01:37:53.526Z,2.90
2023-01-09T01:40:19.930Z,3.22
2023-01-09T01:42:49.124Z,2.70
2023-01-09T01:45:23.660Z,2.90
2023-01-09T01:48:09.564Z,3.10
2023-01-09T01:50:50.313Z,2.70
2023-01-09T01:53:38.693Z,3.80
2023-01-09T01:56:13.272Z,3.20
2023-01-09T01:58:58.008Z,3.10
2023-01-09T02:01:25.699Z,3.10
2023-01-09T02:03:55.279Z,3.40
2023-01-09T02:06:21.766Z,3.10
2023-01-09T02:08:49.219Z,3.40
2023-01-09T02:11:18.596Z,3.67
2023-01-09T02:13:45.244Z,3.70
2023-01-09T02:16:23.561Z,3.53
2023-01-09T02:19:27.426Z,3.40
2023-01-09T02:22:30.227Z,3.38
2023-01-09T02:24:59.291Z,3.47
2023-01-09T02:27:58.944Z,3.33
2023-01-09T02:30:31.668Z,3.08
2023-01-09T02:33:05.362Z,3.45
2023-01-09T02:35:49.487Z,3.53
2023-01-09T02:38:33.108Z,3.45
2023-01-09T02:41:08.415Z,3.60
2023-01-09T02:43:34.812Z,3.30
2023-01-09T02:46:01.318Z,3.53
2023-01-09T02:48:29.414Z,3.55
2023-01-09T02:51:04.393Z,3.60
2023-01-09T02:53:46.565Z,3.60
2023-01-09T02:56:12.905Z,3.53
2023-01-09T02:58:50.373Z,3.75
2023-01-09T03:01:39.506Z,3.33
2023-01-09T03:04:20.858Z,3.38
2023-01-09T03:06:54.611Z,3.63
2023-01-09T03:09:27.445Z,4.00
2023-01-09T03:12:01.437Z,3.75
2023-01-09T03:17:00.747Z,3.50
2023-01-09T03:19:31.565Z,3.05
2023-01-09T03:21:59.269Z,3.50
2023-01-09T03:24:25.933Z,3.30
2023-01-09T03:26:54.351Z,3.35
2023-01-09T03:29:21.249Z,3.67
2023-01-09T03:31:47.880Z,3.53
2023-01-09T03:34:14.330Z,3.30
2023-01-09T03:36:40.771Z,3.35
2023-01-09T03:39:07.203Z,3.28
2023-01-09T03:41:33.641Z,2.88
2023-01-09T03:44:00.041Z,3.22
2023-01-09T03:46:26.462Z,3.42
2023-01-09T03:48:52.907Z,3.00
2023-01-09T03:51:19.346Z,3.20
2023-01-09T03:53:45.734Z,3.00
2023-01-09T03:56:12.145Z,3.25
2023-01-09T03:58:38.605Z,2.80
2023-01-09T04:01:09.356Z,2.75
2023-01-09T04:03:36.243Z,2.70
2023-01-09T04:06:02.699Z,2.40
2023-01-09T04:08:29.299Z,2.70
2023-01-09T04:10:55.696Z,2.53
2023-01-09T04:13:22.863Z,2.67
2023-01-09T04:15:49.580Z,2.30
2023-01-09T04:18:16.245Z,2.47
2023-01-09T04:20:42.831Z,2.38
2023-01-09T04:23:09.250Z,2.10
2023-01-09T04:25:35.707Z,2.28
2023-01-09T04:28:02.111Z,2.30
2023-01-09T04:30:28.553Z,2.08
2023-01-09T04:32:54.957Z,2.15
2023-01-09T04:35:21.375Z,2.20
2023-01-09T04:37:47.911Z,2.10
2023-01-09T04:40:14.951Z,1.80
2023-01-09T04:42:41.614Z,2.10
2023-01-09T04:45:10.631Z,2.30
2023-01-09T04:47:37.225Z,1.83
2023-01-09T04:50:04.469Z,1.75
2023-01-09T04:52:30.977Z,1.80
2023-01-09T04:54:57.445Z,1.60
2023-01-09T04:57:23.965Z,1.83
2023-01-09T04:59:52.161Z,1.80
2023-01-09T05:02:18.777Z,1.90
2023-01-09T05:04:45.213Z,1.58
2023-01-09T05:07:11.618Z,1.48
2023-01-09T05:09:38.031Z,1.52
2023-01-09T05:12:04.855Z,1.55
2023-01-09T05:14:31.355Z,1.60
2023-01-09T05:16:57.781Z,1.58
2023-01-09T05:19:24.320Z,1.48
2023-01-09T05:21:50.780Z,1.45
2023-01-09T05:24:17.339Z,1.70
2023-01-09T05:26:43.778Z,1.33
2023-01-09T05:29:10.259Z,1.55
2023-01-09T05:31:36.890Z,1.50
2023-01-09T05:34:03.836Z,1.40
2023-01-09T05:36:30.495Z,1.58
2023-01-09T05:38:57.875Z,1.60
2023-01-09T05:41:26.134Z,1.33
2023-01-09T05:43:53.074Z,1.30
2023-01-09T05:46:19.702Z,1.60
2023-01-09T05:48:46.179Z,1.38
2023-01-09T05:51:12.961Z,1.50
2023-01-09T05:53:39.488Z,1.38
2023-01-09T05:56:06.260Z,1.60
2023-01-09T05:58:32.841Z,1.30
2023-01-09T06:00:59.634Z,1.67
2023-01-09T06:03:26.159Z,1.50
2023-01-09T06:05:52.552Z,1.40
2023-01-09T06:08:19.312Z,1.55
2023-01-09T06:10:46.199Z,1.67
2023-01-09T06:13:12.658Z,1.60
2023-01-09T06:15:39.216Z,1.55
2023-01-09T06:18:05.703Z,1.55
2023-01-09T06:20:32.541Z,1.65
2023-01-09T06:22:58.961Z,1.50
2023-01-09T06:25:25.571Z,1.85
2023-01-09T06:27:52.116Z,1.95
2023-01-09T06:30:19.905Z,1.50
2023-01-09T06:32:49.177Z,1.40
2023-01-09T06:35:20.225Z,1.30
2023-01-09T06:37:47.855Z,1.73
2023-01-09T06:40:14.838Z,1.35
2023-01-09T06:42:45.671Z,1.90
2023-01-09T06:45:13.145Z,1.60
2023-01-09T06:47:39.957Z,1.75
2023-01-09T06:50:09.275Z,1.60
2023-01-09T06:52:36.512Z,1.70
2023-01-09T06:55:03.013Z,1.67
2023-01-09T06:57:29.424Z,1.70
2023-01-09T06:59:55.887Z,1.65
2023-01-09T07:02:22.466Z,1.70
2023-01-09T07:04:48.875Z,1.83
2023-01-09T07:07:15.700Z,2.10
2023-01-09T07:09:42.112Z,1.98
2023-01-09T07:12:08.556Z,1.88
2023-01-09T07:14:35.044Z,2.20
2023-01-09T07:17:01.448Z,2.13
2023-01-09T07:19:27.877Z,1.88
2023-01-09T07:21:54.358Z,2.08
2023-01-09T07:24:20.747Z,1.83
2023-01-09T07:26:47.148Z,1.70
2023-01-09T07:29:13.551Z,1.90
2023-01-09T07:31:40.302Z,2.35
2023-01-09T07:34:06.792Z,1.85
2023-01-09T07:36:33.224Z,1.90
2023-01-09T07:38:59.620Z,2.33
2023-01-09T07:41:26.026Z,2.42
2023-01-09T07:43:52.463Z,2.00
2023-01-09T07:46:19.005Z,1.85
2023-01-09T07:48:45.409Z,2.13
2023-01-09T07:51:12.663Z,2.17
2023-01-09T07:53:39.154Z,2.10
2023-01-09T07:56:05.884Z,1.80
2023-01-09T07:58:32.329Z,2.00
2023-01-09T08:00:59.004Z,2.30
2023-01-09T08:03:26.833Z,2.00
2023-01-09T08:05:53.328Z,2.10
2023-01-09T08:08:19.882Z,2.20
2023-01-09T08:10:46.365Z,2.40
2023-01-09T08:13:12.931Z,2.35
2023-01-09T08:15:39.390Z,2.50
2023-01-09T08:18:05.921Z,2.30
2023-01-09T08:20:32.713Z,2.40
2023-01-09T08:22:59.403Z,2.42
2023-01-09T08:25:25.985Z,2.90
2023-01-09T08:27:52.496Z,3.00
2023-01-09T08:30:19.591Z,2.63
2023-01-09T08:32:51.357Z,2.70
2023-01-09T08:35:18.078Z,3.00
2023-01-09T08:37:45.910Z,2.92
2023-01-09T08:40:13.692Z,3.25
2023-01-09T08:42:58.658Z,3.30
2023-01-09T08:45:43.582Z,3.30
2023-01-09T08:48:10.657Z,3.67
2023-01-09T08:50:37.733Z,3.75
2023-01-09T08:53:04.296Z,3.75
2023-01-09T08:55:32.324Z,3.47
2023-01-09T08:57:58.732Z,3.75
2023-01-09T09:00:25.687Z,3.55
2023-01-09T09:02:53.968Z,3.72
2023-01-09T09:05:22.041Z,4.22
2023-01-09T09:07:49.943Z,3.80
2023-01-09T09:10:17.374Z,4.07
2023-01-09T09:12:44.353Z,4.20
2023-01-09T09:15:16.206Z,4.50
2023-01-09T09:17:44.441Z,4.55
2023-01-09T09:20:11.697Z,4.68
2023-01-09T09:22:38.178Z,4.57
2023-01-09T09:25:05.128Z,4.55
2023-01-09T09:27:32.611Z,4.90
2023-01-09T09:29:59.985Z,4.53
2023-01-09T09:32:26.478Z,4.43
2023-01-09T09:34:52.899Z,4.43
2023-01-09T09:37:19.341Z,5.20
2023-01-09T09:39:45.715Z,5.70
2023-01-09T09:42:53.837Z,4.95
2023-01-09T09:45:37.410Z,5.50
2023-01-09T09:48:09.760Z,5.88
2023-01-09T09:50:43.039Z,5.32
2023-01-09T09:53:19.121Z,5.60
2023-01-09T09:55:48.329Z,5.55
2023-01-09T09:58:28.722Z,5.38
2023-01-09T10:00:56.060Z,5.80
2023-01-09T10:03:38.526Z,5.55
2023-01-09T10:06:15.348Z,6.53
2023-01-09T10:09:10.500Z,5.15
2023-01-09T10:11:47.333Z,6.07
2023-01-09T10:14:23.786Z,5.80
2023-01-09T10:17:19.012Z,6.47
2023-01-09T10:20:08.643Z,6.20
2023-01-09T10:23:05.844Z,6.15
2023-01-09T10:25:48.267Z,6.00
2023-01-09T10:28:35.388Z,6.30
2023-01-09T10:31:47.058Z,6.10
2023-01-09T10:34:51.202Z,6.03
2023-01-09T10:37:29.155Z,5.65
2023-01-09T10:40:04.968Z,5.60
2023-01-09T10:42:47.656Z,5.80
2023-01-09T10:45:20.163Z,5.38
2023-01-09T10:47:48.239Z,5.88
2023-01-09T10:50:22.659Z,5.75
2023-01-09T10:52:51.901Z,6.38
2023-01-09T10:55:23.087Z,6.63
2023-01-09T10:57:57.220Z,6.03
2023-01-09T11:02:53.032Z,5.82
2023-01-09T11:05:22.107Z,6.00
2023-01-09T11:08:06.656Z,6.00
2023-01-09T11:10:48.274Z,6.43
2023-01-09T11:13:26.531Z,6.25
2023-01-09T11:16:09.029Z,5.70
2023-01-09T11:18:39.874Z,6.18
2023-01-09T11:21:15.136Z,6.03
2023-01-09T11:23:41.677Z,5.88
2023-01-09T11:26:21.991Z,5.78
2023-01-09T11:29:06.291Z,5.75
2023-01-09T11:31:33.322Z,5.25
2023-01-09T11:33:59.989Z,6.20
2023-01-09T11:36:26.575Z,5.18
2023-01-09T11:38:55.610Z,6.57
2023-01-09T11:41:29.690Z,5.90
2023-01-09T11:46:33.806Z,5.35
2023-01-09T11:49:02.491Z,5.35
2023-01-09T11:51:31.973Z,5.45
2023-01-09T11:54:17.274Z,5.72
2023-01-09T11:56:44.544Z,4.80
2023-01-09T11:59:17.093Z,5.50
2023-01-09T12:02:03.593Z,5.97
2023-01-09T12:04:40.973Z,5.38
2023-01-09T12:07:10.420Z,5.18
2023-01-09T12:09:43.614Z,5.10
2023-01-09T12:12:54.751Z,4.70
2023-01-09T12:15:28.310Z,4.38
2023-01-09T12:18:36.337Z,4.93
2023-01-09T12:21:17.824Z,5.20
2023-01-09T12:24:11.152Z,5.13
2023-01-09T12:27:05.841Z,4.63
2023-01-09T12:32:19.949Z,4.68
2023-01-09T12:35:15.267Z,5.25
2023-01-09T12:37:59.162Z,4.57
2023-01-09T12:40:36.710Z,4.50
2023-01-09T12:43:35.702Z,4.72
2023-01-09T12:46:16.375Z,3.88
2023-01-09T12:49:15.235Z,4.25
2023-01-09T12:52:23.307Z,4.68
2023-01-09T12:55:02.931Z,4.93
2023-01-09T12:57:42.309Z,4.15
2023-01-09T13:00:18.882Z,4.05
2023-01-09T13:03:03.580Z,4.72
2023-01-09T13:05:42.989Z,4.75
2023-01-09T13:08:18.859Z,4.72
2023-01-09T13:10:49.222Z,3.97
2023-01-09T13:13:21.780Z,4.55
2023-01-09T13:15:53.382Z,4.43
2023-01-09T13:18:27.423Z,4.00
2023-01-09T13:20:58.259Z,4.72
2023-01-09T13:23:48.807Z,4.05
2023-01-09T13:26:58.690Z,4.30
2023-01-09T13:29:30.406Z,4.15
2023-01-09T13:32:22.987Z,4.22
2023-01-09T13:34:53.436Z,4.43
2023-01-09T13:37:24.623Z,3.75
2023-01-09T13:40:07.597Z,4.30
2023-01-09T13:42:45.955Z,3.83
2023-01-09T13:45:18.514Z,3.60
2023-01-09T13:47:45.332Z,3.92
2023-01-09T13:50:11.676Z,3.72
2023-01-09T13:52:42.691Z,3.95
2023-01-09T13:55:16.424Z,3.88
2023-01-09T13:58:02.409Z,4.05
2023-01-09T14:00:28.722Z,3.80
2023-01-09T14:03:19.347Z,3.67
2023-01-09T14:05:45.991Z,3.85
2023-01-09T14:08:19.285Z,4.10
2023-01-09T14:10:51.609Z,3.50
2023-01-09T14:13:30.829Z,3.83
2023-01-09T14:16:27.201Z,3.75
2023-01-09T14:19:02.514Z,4.22
2023-01-09T14:21:44.727Z,3.90
2023-01-09T14:24:19.495Z,3.85
2023-01-09T14:26:55.216Z,4.00
2023-01-09T14:29:29.376Z,4.30
2023-01-09T14:32:20.696Z,4.05
2023-01-09T14:34:53.695Z,3.60
2023-01-09T14:37:20.855Z,3.90
2023-01-09T14:39:50.361Z,4.15
2023-01-09T14:42:23.153Z,4.00
2023-01-09T14:45:06.119Z,3.90
2023-01-09T14:47:39.983Z,4.05
2023-01-09T14:50:26.782Z,4.00
2023-01-09T14:53:02.277Z,4.40
2023-01-09T14:56:06.047Z,3.92
2023-01-09T14:58:34.416Z,4.47
2023-01-09T15:01:06.374Z,3.95
2023-01-09T15:03:58.806Z,4.40
2023-01-09T15:06:30.910Z,5.20
2023-01-09T15:09:08.695Z,4.25
2023-01-09T15:11:38.716Z,4.18
2023-01-09T15:14:06.737Z,3.95
2023-01-09T15:16:33.436Z,4.53
2023-01-09T15:19:02.434Z,4.30
2023-01-09T15:21:31.363Z,3.92
2023-01-09T15:24:22.420Z,4.13
2023-01-09T15:26:53.677Z,4.53
2023-01-09T15:29:20.520Z,4.60
2023-01-09T15:31:52.089Z,4.72
2023-01-09T15:34:22.338Z,4.47
2023-01-09T15:36:50.386Z,4.50
2023-01-09T15:39:24.912Z,4.63
2023-01-09T15:42:10.122Z,4.30
2023-01-09T15:44:39.118Z,4.03
2023-01-09T15:47:12.027Z,4.15
2023-01-09T15:49:38.707Z,4.32
2023-01-09T15:52:07.667Z,3.90
2023-01-09T15:54:35.160Z,4.47
2023-01-09T15:57:26.327Z,4.18
2023-01-09T15:59:54.122Z,4.07
2023-01-09T16:02:41.795Z,4.20
2023-01-09T16:05:16.588Z,4.53
2023-01-09T16:07:50.890Z,4.22
2023-01-09T16:10:34.836Z,4.75
2023-01-09T16:13:02.313Z,4.28
2023-01-09T16:15:33.343Z,4.30
2023-01-09T16:18:19.623Z,4.35
2023-01-09T16:20:46.416Z,4.25
2023-01-09T16:23:23.890Z,4.53
2023-01-09T16:25:50.408Z,4.30
2023-01-09T16:28:26.692Z,4.03
2023-01-09T16:31:07.133Z,4.07
2023-01-09T16:33:34.157Z,4.97
2023-01-09T16:36:00.962Z,4.63
2023-01-09T16:38:27.827Z,4.75
2023-01-09T16:41:45.943Z,4.63
2023-01-09T16:44:14.675Z,4.05
2023-01-09T16:46:43.940Z,4.07
2023-01-09T16:49:21.393Z,3.97
2023-01-09T16:51:48.231Z,4.22
2023-01-09T16:54:14.855Z,3.88
2023-01-09T16:56:43.725Z,4.20
2023-01-09T16:59:14.982Z,4.25
2023-01-09T17:01:43.264Z,4.03
2023-01-09T17:04:11.948Z,4.25
2023-01-09T17:06:39.236Z,4.38
2023-01-09T17:09:05.996Z,3.95
2023-01-09T17:11:32.556Z,4.07
2023-01-09T17:13:59.986Z,3.90
2023-01-09T17:16:28.219Z,4.00
2023-01-09T17:18:55.229Z,4.10
2023-01-09T17:21:24.810Z,4.18
2023-01-09T17:24:10.510Z,3.70
2023-01-09T17:26:57.428Z,3.83
2023-01-09T17:29:24.442Z,4.03
2023-01-09T17:31:50.995Z,3.60
2023-01-09T17:34:17.582Z,3.88
2023-01-09T17:36:44.472Z,4.22
2023-01-09T17:39:15.265Z,3.60
2023-01-09T17:41:42.192Z,3.53
2023-01-09T17:44:11.111Z,3.35
2023-01-09T17:46:40.048Z,3.47
2023-01-09T17:49:07.926Z,3.30
2023-01-09T17:51:34.501Z,3.22
2023-01-09T17:54:01.006Z,3.10
2023-01-09T17:56:32.975Z,3.67
2023-01-09T17:58:59.664Z,4.07
2023-01-09T18:01:26.670Z,3.60
2023-01-09T18:03:53.407Z,3.30
2023-01-09T18:06:22.312Z,3.85
2023-01-09T18:08:49.195Z,3.65
2023-01-09T18:11:20.022Z,4.00
2023-01-09T18:13:48.240Z,4.15
2023-01-09T18:16:17.821Z,3.97
2023-01-09T18:18:47.501Z,4.00
2023-01-09T18:21:20.272Z,4.07
2023-01-09T18:23:47.770Z,4.10
2023-01-09T18:26:21.909Z,4.13
2023-01-09T18:28:51.458Z,3.80
2023-01-09T18:31:22.587Z,3.65
2023-01-09T18:33:53.485Z,3.72
2023-01-09T18:36:23.256Z,3.63
2023-01-09T18:38:53.702Z,3.90
2023-01-09T18:41:21.789Z,3.97
2023-01-09T18:43:51.976Z,3.50
2023-01-09T18:46:24.580Z,3.55
2023-01-09T18:48:55.295Z,4.13
2023-01-09T18:51:22.710Z,4.13
2023-01-09T18:53:52.515Z,4.07
2023-01-09T18:56:19.858Z,3.97
2023-01-09T18:58:47.920Z,4.07
2023-01-09T19:01:14.912Z,4.28
2023-01-09T19:03:41.728Z,4.68
2023-01-09T19:06:08.609Z,4.63
2023-01-09T19:08:36.003Z,5.63
2023-01-09T19:11:03.255Z,5.70
2023-01-09T19:13:32.174Z,5.57
2023-01-09T19:15:59.166Z,5.85
2023-01-09T19:18:27.047Z,6.57
2023-01-09T19:20:57.271Z,5.55
2023-01-09T19:23:26.832Z,6.35
2023-01-09T19:25:54.338Z,6.75
2023-01-09T19:28:21.482Z,7.38
2023-01-09T19:30:54.640Z,8.27
2023-01-09T19:33:21.446Z,8.63
2023-01-09T19:35:48.826Z,8.32
2023-01-09T19:38:15.256Z,8.60
2023-01-09T19:40:43.356Z,8.60
2023-01-09T19:43:09.841Z,8.82
2023-01-09T19:45:39.017Z,9.82
2023-01-09T19:48:05.760Z,9.60
2023-01-09T19:50:32.361Z,9.65
2023-01-09T19:52:58.820Z,10.20
2023-01-09T19:55:25.229Z,10.80
2023-01-09T19:57:51.676Z,11.30
2023-01-09T20:00:18.261Z,11.23
2023-01-09T20:02:45.245Z,11.63
2023-01-09T20:05:11.757Z,12.63
2023-01-09T20:07:38.160Z,12.55
2023-01-09T20:10:05.104Z,12.57
2023-01-09T20:12:32.813Z,12.82
2023-01-09T20:14:59.280Z,12.85
2023-01-09T20:17:25.841Z,13.73
2023-01-09T20:19:52.281Z,13.32
2023-01-09T20:22:19.322Z,13.77
2023-01-09T20:24:45.867Z,14.50
2023-01-09T20:27:13.648Z,14.18
2023-01-09T20:29:40.209Z,14.20
2023-01-09T20:32:07.673Z,14.27
2023-01-09T20:34:34.130Z,15.23
2023-01-09T20:37:00.570Z,15.00
2023-01-09T20:39:27.184Z,16.25
2023-01-09T20:41:53.768Z,15.60
2023-01-09T20:44:20.575Z,14.77
2023-01-09T20:46:47.886Z,14.95
2023-01-09T20:49:18.019Z,15.25
2023-01-09T20:51:47.429Z,15.20
2023-01-09T20:54:14.584Z,14.98
2023-01-09T20:56:41.314Z,15.68
2023-01-09T20:59:12.840Z,15.18
2023-01-09T21:01:40.262Z,16.30
2023-01-09T21:04:08.683Z,15.95
2023-01-09T21:06:36.043Z,15.95
2023-01-09T21:09:04.303Z,16.08
2023-01-09T21:11:31.160Z,16.25
2023-01-09T21:13:57.798Z,16.48
2023-01-09T21:16:25.003Z,15.40
2023-01-09T21:18:53.472Z,16.25
2023-01-09T21:21:27.217Z,15.38
2023-01-09T21:23:57.106Z,17.55
2023-01-09T21:26:27.491Z,16.40
2023-01-09T21:28:55.418Z,15.52
2023-01-09T21:31:33.448Z,16.05
2023-01-09T21:34:04.959Z,15.65
2023-01-09T21:36:32.107Z,16.60
2023-01-09T21:38:59.115Z,16.08
2023-01-09T21:41:44.585Z,16.67
2023-01-09T21:44:31.547Z,15.35
2023-01-09T21:47:00.815Z,16.95
2023-01-09T21:49:31.147Z,16.38
2023-01-09T21:51:58.243Z,15.70
2023-01-09T21:54:25.058Z,17.20
2023-01-09T21:56:54.639Z,18.23
2023-01-09T21:59:21.233Z,16.92
2023-01-09T22:01:49.494Z,16.08
2023-01-09T22:04:18.121Z,16.15
2023-01-09T22:06:44.646Z,17.00
2023-01-09T22:09:11.425Z,16.30
2023-01-09T22:11:40.281Z,16.92
2023-01-09T22:14:06.994Z,18.60
2023-01-09T22:16:33.817Z,17.23
2023-01-09T22:19:00.312Z,18.02
2023-01-09T22:21:26.799Z,17.98
2023-01-09T22:23:53.387Z,18.75
2023-01-09T22:26:20.238Z,18.75
2023-01-09T22:28:49.925Z,19.08
2023-01-09T22:31:34.032Z,18.92
2023-01-09T22:34:02.463Z,19.95
2023-01-09T22:36:30.935Z,19.02
2023-01-09T22:39:00.699Z,19.92
2023-01-09T22:41:29.609Z,19.55
2023-01-09T22:43:56.462Z,20.02
2023-01-09T22:46:25.819Z,19.00
2023-01-09T22:48:52.248Z,19.42
2023-01-09T22:51:20.920Z,19.00
2023-01-09T22:53:47.361Z,20.40
2023-01-09T22:56:19.444Z,20.25
2023-01-09T22:58:50.956Z,19.63
2023-01-09T23:01:17.995Z,20.75
2023-01-09T23:03:44.416Z,20.55
2023-01-09T23:06:16.741Z,21.13
2023-01-09T23:08:43.626Z,20.05
2023-01-09T23:11:13.585Z,21.13
2023-01-09T23:13:40.428Z,20.00
2023-01-09T23:16:07.592Z,20.13
2023-01-09T23:18:34.942Z,18.92
2023-01-09T23:21:03.490Z,20.55
2023-01-09T23:23:31.444Z,20.80
2023-01-09T23:26:02.141Z,20.63
2023-01-09T23:28:30.298Z,21.17
2023-01-09T23:30:56.885Z,19.13
2023-01-09T23:33:23.288Z,19.33
2023-01-09T23:35:49.834Z,18.88
2023-01-09T23:38:16.365Z,18.63
2023-01-09T23:40:42.960Z,18.95
2023-01-09T23:43:15.020Z,18.75
2023-01-09T23:45:46.117Z,18.42
2023-01-09T23:48:15.056Z,18.05
2023-01-09T23:50:49.074Z,19.40
2023-01-09T23:53:15.969Z,17.30
2023-01-09T23:55:42.715Z,17.17
2023-01-09T23:58:09.228Z,16.95
